createdAt,value
2022-11-04T00:01:10.463Z,3.00
2022-11-04T00:06:24.381Z,2.63
2022-11-04T00:11:45.650Z,2.78
2022-11-04T00:17:05.690Z,2.58
2022-11-04T00:22:27.499Z,2.88
2022-11-04T00:27:47.687Z,2.83
2022-11-04T00:33:10.120Z,1.95
2022-11-04T00:38:14.175Z,2.05
2022-11-04T00:48:19.115Z,1.95
2022-11-04T00:53:23.160Z,2.25
2022-11-04T01:03:28.151Z,1.55
2022-11-04T01:08:32.150Z,1.90
2022-11-04T01:18:37.055Z,1.77
2022-11-04T01:23:41.552Z,1.70
2022-11-04T01:28:44.072Z,1.52
2022-11-04T01:33:46.809Z,0.85
2022-11-04T01:38:51.044Z,1.40
2022-11-04T01:43:54.914Z,1.10
2022-11-04T01:49:00.011Z,0.50
2022-11-04T01:54:04.975Z,0.90
2022-11-04T01:59:08.932Z,1.10
2022-11-04T02:04:27.202Z,0.88
2022-11-04T02:09:32.409Z,0.55
2022-11-04T02:14:35.768Z,0.77
2022-11-04T02:19:48.320Z,0.50
2022-11-04T02:25:08.770Z,0.68
2022-11-04T02:30:14.775Z,0.70
2022-11-04T02:35:22.840Z,0.38
2022-11-04T02:40:30.613Z,0.30
2022-11-04T02:45:39.523Z,0.65
2022-11-04T02:50:45.612Z,0.40
2022-11-04T02:55:49.625Z,0.90
2022-11-04T03:00:55.272Z,0.60
2022-11-04T03:06:09.254Z,0.70
2022-11-04T03:11:13.080Z,0.60
2022-11-04T03:16:18.833Z,0.55
2022-11-04T03:21:21.722Z,0.47
2022-11-04T03:26:29.827Z,0.57
2022-11-04T03:31:37.318Z,0.47
2022-11-04T03:36:39.945Z,0.15
2022-11-04T03:41:44.653Z,0.35
2022-11-04T03:46:48.783Z,0.22
2022-11-04T03:57:07.342Z,0.32
2022-11-04T04:02:20.816Z,0.50
2022-11-04T04:07:30.824Z,0.38
2022-11-04T04:12:36.205Z,0.32
2022-11-04T04:17:43.996Z,0.32
2022-11-04T04:22:49.548Z,0.20
2022-11-04T04:27:56.888Z,0.40
2022-11-04T04:33:02.721Z,0.35
2022-11-04T04:38:25.392Z,0.60
2022-11-04T04:43:45.553Z,0.50
2022-11-04T04:48:49.562Z,0.20
2022-11-04T04:53:52.103Z,0.55
2022-11-04T04:58:54.636Z,0.38
2022-11-04T05:03:58.823Z,0.25
2022-11-04T05:09:01.414Z,0.43
2022-11-04T05:14:04.606Z,0.50
2022-11-04T05:19:08.970Z,0.33
2022-11-04T05:24:11.792Z,0.40
2022-11-04T05:34:23.426Z,0.32
2022-11-04T05:44:28.479Z,0.47
2022-11-04T05:49:33.555Z,0.30
2022-11-04T05:54:38.185Z,0.73
2022-11-04T05:59:40.906Z,0.50
2022-11-04T06:04:44.888Z,0.28
2022-11-04T06:09:47.512Z,0.22
2022-11-04T06:14:50.178Z,0.40
2022-11-04T06:19:54.141Z,0.52
2022-11-04T06:24:56.837Z,0.50
2022-11-04T06:29:59.605Z,0.63
2022-11-04T06:35:03.731Z,0.70
2022-11-04T06:40:08.306Z,0.80
2022-11-04T06:45:12.350Z,0.60
2022-11-04T06:50:16.324Z,0.73
2022-11-04T06:55:18.893Z,0.57
2022-11-04T07:00:21.532Z,0.90
2022-11-04T07:05:25.491Z,0.55
2022-11-04T07:10:28.363Z,0.70
2022-11-04T07:15:32.861Z,0.88
2022-11-04T07:20:37.266Z,0.50
2022-11-04T07:25:39.976Z,0.35
2022-11-04T07:30:42.809Z,0.60
2022-11-04T07:35:46.872Z,0.80
2022-11-04T07:46:00.086Z,1.00
2022-11-04T07:51:05.867Z,0.60
2022-11-04T07:56:11.577Z,0.50
2022-11-04T08:01:16.321Z,0.70
2022-11-04T08:06:21.227Z,1.00
2022-11-04T08:11:25.367Z,1.13
2022-11-04T08:16:34.018Z,0.90
2022-11-04T08:21:38.927Z,0.80
2022-11-04T08:26:42.289Z,0.47
2022-11-04T08:31:45.041Z,0.70
2022-11-04T08:36:49.692Z,0.25
2022-11-04T08:41:54.835Z,0.70
2022-11-04T08:46:57.415Z,0.80
2022-11-04T08:52:02.016Z,0.63
2022-11-04T08:57:06.795Z,0.32
2022-11-04T09:02:12.320Z,0.70
2022-11-04T09:07:16.877Z,0.68
2022-11-04T09:12:19.615Z,1.20
2022-11-04T09:17:22.718Z,0.60
2022-11-04T09:22:26.708Z,0.73
2022-11-04T09:27:29.449Z,0.57
2022-11-04T09:32:32.227Z,0.88
2022-11-04T09:37:36.770Z,0.70
2022-11-04T09:42:43.846Z,0.60
2022-11-04T09:47:47.937Z,0.80
2022-11-04T09:52:55.268Z,1.00
2022-11-04T09:57:59.111Z,0.55
2022-11-04T10:03:06.455Z,0.70
2022-11-04T10:08:23.359Z,0.98
2022-11-04T10:13:30.392Z,0.40
2022-11-04T10:18:43.367Z,0.90
2022-11-04T10:23:55.372Z,0.60
2022-11-04T10:28:59.577Z,1.40
2022-11-04T10:34:06.324Z,1.20
2022-11-04T10:39:17.748Z,0.65
2022-11-04T10:44:22.425Z,1.20
2022-11-04T10:49:37.867Z,1.20
2022-11-04T10:54:43.469Z,1.25
2022-11-04T10:59:52.548Z,0.57
2022-11-04T11:05:16.412Z,1.05
2022-11-04T11:10:21.471Z,0.68
2022-11-04T11:15:30.198Z,1.00
2022-11-04T11:20:34.745Z,1.70
2022-11-04T11:25:42.585Z,1.27
2022-11-04T11:30:56.506Z,1.17
2022-11-04T11:36:00.983Z,1.20
2022-11-04T11:41:23.876Z,1.55
2022-11-04T11:46:29.060Z,0.95
2022-11-04T11:51:33.160Z,1.35
2022-11-04T12:02:14.810Z,0.70
2022-11-04T12:12:52.431Z,0.45
2022-11-04T12:18:09.284Z,0.85
2022-11-04T12:23:19.704Z,0.40
2022-11-04T12:28:25.587Z,0.38
2022-11-04T12:33:34.291Z,0.57
2022-11-04T12:38:49.094Z,0.80
2022-11-04T12:43:55.700Z,0.60
2022-11-04T12:49:07.364Z,0.95
2022-11-04T12:54:18.966Z,1.17
2022-11-04T12:59:40.491Z,0.80
2022-11-04T13:04:48.519Z,0.60
2022-11-04T13:09:55.163Z,0.63
2022-11-04T13:15:00.767Z,1.30
2022-11-04T13:20:07.951Z,0.98
2022-11-04T13:25:15.301Z,0.50
2022-11-04T13:30:22.209Z,1.10
2022-11-04T13:35:31.664Z,0.85
2022-11-04T13:40:40.225Z,0.60
2022-11-04T13:45:47.073Z,0.95
2022-11-04T13:50:58.374Z,0.80
2022-11-04T13:56:20.887Z,1.15
2022-11-04T14:01:27.936Z,1.30
2022-11-04T14:06:45.365Z,1.67
2022-11-04T14:12:09.139Z,1.73
2022-11-04T14:17:26.954Z,1.42
2022-11-04T14:22:35.221Z,1.30
2022-11-04T14:27:40.784Z,1.08
2022-11-04T14:32:43.882Z,0.90
2022-11-04T14:37:55.893Z,0.90
2022-11-04T14:42:59.419Z,1.02
2022-11-04T14:48:11.826Z,1.30
2022-11-04T14:53:24.360Z,0.50
2022-11-04T14:58:28.352Z,1.10
2022-11-04T15:09:02.232Z,0.93
2022-11-04T15:14:12.436Z,1.42
2022-11-04T15:19:18.813Z,0.60
2022-11-04T15:24:23.538Z,1.13
2022-11-04T15:29:26.471Z,0.88
2022-11-04T15:34:30.614Z,0.28
2022-11-04T15:39:36.030Z,0.90
2022-11-04T15:44:39.500Z,0.55
2022-11-04T15:49:42.298Z,0.70
2022-11-04T15:54:47.967Z,1.08
2022-11-04T15:59:52.828Z,1.00
2022-11-04T16:05:06.553Z,0.45
2022-11-04T16:10:27.937Z,1.67
2022-11-04T16:15:32.084Z,0.45
2022-11-04T16:25:39.691Z,0.93
2022-11-04T16:30:56.272Z,1.05
2022-11-04T16:35:58.867Z,0.88
2022-11-04T16:41:03.943Z,1.40
2022-11-04T16:46:06.450Z,1.10
2022-11-04T16:51:12.386Z,0.93
2022-11-04T16:56:22.776Z,1.25
2022-11-04T17:01:25.470Z,1.48
2022-11-04T17:06:28.414Z,0.63
2022-11-04T17:11:33.645Z,1.10
2022-11-04T17:21:38.829Z,1.20
2022-11-04T17:26:43.145Z,1.33
2022-11-04T17:31:45.948Z,0.30
2022-11-04T17:36:48.650Z,2.63
2022-11-04T17:42:10.035Z,1.70
2022-11-04T17:47:12.819Z,2.00
2022-11-04T17:52:15.373Z,1.73
2022-11-04T17:57:19.367Z,2.00
2022-11-04T18:02:22.168Z,3.10
2022-11-04T18:07:24.907Z,7.63
2022-11-04T18:12:37.751Z,4.30
2022-11-04T18:17:40.748Z,2.50
2022-11-04T18:22:43.918Z,3.10
2022-11-04T18:27:48.960Z,2.63
2022-11-04T18:32:52.614Z,2.08
2022-11-04T18:37:55.357Z,2.33
2022-11-04T18:43:01.239Z,2.30
2022-11-04T18:48:07.519Z,1.70
2022-11-04T18:53:11.054Z,1.85
2022-11-04T18:58:15.330Z,2.53
2022-11-04T19:03:18.356Z,2.08
2022-11-04T19:08:20.897Z,2.20
2022-11-04T19:13:24.844Z,2.00
2022-11-04T19:18:27.564Z,2.63
2022-11-04T19:23:31.246Z,2.03
2022-11-04T19:28:47.228Z,3.17
2022-11-04T19:33:51.780Z,3.97
2022-11-04T19:38:55.228Z,1.35
2022-11-04T19:43:59.737Z,2.90
2022-11-04T19:49:02.390Z,7.30
2022-11-04T19:54:05.572Z,3.15
2022-11-04T19:59:10.165Z,2.58
2022-11-04T20:04:13.349Z,3.92
2022-11-04T20:09:15.934Z,1.70
2022-11-04T20:14:20.058Z,2.35
2022-11-04T20:19:23.458Z,1.67
2022-11-04T20:24:26.476Z,1.17
2022-11-04T20:29:30.474Z,3.47
2022-11-04T20:34:34.350Z,0.45
2022-11-04T20:39:40.965Z,3.28
2022-11-04T20:44:45.819Z,1.23
2022-11-04T20:49:49.305Z,3.35
2022-11-04T20:54:51.988Z,2.55
2022-11-04T20:59:56.007Z,2.95
2022-11-04T21:04:58.693Z,3.40
2022-11-04T21:10:01.401Z,2.63
2022-11-04T21:15:25.957Z,2.97
2022-11-04T21:25:30.922Z,2.42
2022-11-04T21:30:35.699Z,1.70
2022-11-04T21:35:39.350Z,1.23
2022-11-04T21:40:42.695Z,2.75
2022-11-04T21:45:46.655Z,1.77
2022-11-04T21:50:49.271Z,5.22
2022-11-04T21:55:52.252Z,8.30
2022-11-04T22:00:57.762Z,8.52
2022-11-04T22:06:00.724Z,3.67
2022-11-04T22:11:08.013Z,2.75
2022-11-04T22:16:12.979Z,2.67
2022-11-04T22:21:17.328Z,1.42
2022-11-04T22:26:21.886Z,1.23
2022-11-04T22:31:27.465Z,1.20
2022-11-04T22:36:30.668Z,1.35
2022-11-04T22:41:34.302Z,0.90
2022-11-04T22:46:38.454Z,1.10
2022-11-04T22:51:41.375Z,0.93
2022-11-04T22:56:43.987Z,1.25
2022-11-04T23:01:48.090Z,1.98
2022-11-04T23:12:10.655Z,0.90
2022-11-04T23:17:34.124Z,1.50
2022-11-04T23:22:54.048Z,1.55
2022-11-04T23:28:15.878Z,1.70
2022-11-04T23:33:39.806Z,0.65
2022-11-04T23:38:47.738Z,1.35
2022-11-04T23:43:53.056Z,1.25
2022-11-04T23:49:22.506Z,1.33
2022-11-04T23:54:42.619Z,1.20
